createdAt,value
2023-01-17T00:00:46.075Z,12.20
2023-01-17T00:06:17.062Z,11.60
2023-01-17T00:11:19.996Z,12.10
2023-01-17T00:16:22.961Z,11.40
2023-01-17T00:21:44.413Z,11.70
2023-01-17T00:27:06.015Z,11.20
2023-01-17T00:32:08.855Z,12.10
2023-01-17T00:37:11.708Z,12.70
2023-01-17T00:42:14.556Z,10.70
2023-01-17T00:47:36.002Z,10.80
2023-01-17T00:52:57.580Z,12.20
2023-01-17T00:58:25.693Z,11.60
2023-01-17T01:03:47.106Z,13.40
2023-01-17T01:09:08.653Z,13.90
2023-01-17T01:14:30.407Z,12.50
2023-01-17T01:19:52.248Z,13.60
2023-01-17T01:25:13.808Z,11.50
2023-01-17T01:30:35.428Z,13.20
2023-01-17T01:35:38.374Z,13.60
2023-01-17T01:40:51.709Z,10.70
2023-01-17T01:45:58.286Z,12.50
2023-01-17T01:51:06.332Z,12.90
2023-01-17T01:56:13.769Z,13.30
2023-01-17T02:01:18.163Z,11.50
2023-01-17T02:06:34.170Z,13.10
2023-01-17T02:11:40.123Z,13.30
2023-01-17T02:18:12.707Z,11.80
2023-01-17T02:23:37.084Z,12.40
2023-01-17T02:28:42.775Z,14.90
2023-01-17T02:34:04.721Z,14.70
2023-01-17T02:39:27.786Z,12.20
2023-01-17T02:44:39.615Z,12.80
2023-01-17T02:49:42.659Z,12.50
2023-01-17T02:55:06.899Z,12.20
2023-01-17T03:00:36.040Z,11.80
2023-01-17T03:05:56.270Z,11.10
2023-01-17T03:10:59.477Z,12.40
2023-01-17T03:16:08.547Z,12.00
2023-01-17T03:21:11.569Z,12.20
2023-01-17T03:26:14.540Z,11.60
2023-01-17T03:31:20.015Z,11.70
2023-01-17T03:36:22.994Z,11.50
2023-01-17T03:41:25.976Z,11.50
2023-01-17T03:46:28.943Z,12.10
2023-01-17T03:51:31.954Z,12.00
2023-01-17T03:56:34.873Z,11.10
2023-01-17T04:01:37.961Z,11.30
2023-01-17T04:06:41.775Z,11.50
2023-01-17T04:11:44.762Z,12.40
2023-01-17T04:16:47.766Z,10.80
2023-01-17T04:21:50.728Z,11.30
2023-01-17T04:26:53.660Z,8.90
2023-01-17T04:31:56.768Z,10.70
2023-01-17T04:36:59.719Z,9.80
2023-01-17T04:42:02.990Z,10.00
2023-01-17T04:47:05.928Z,10.60
2023-01-17T04:52:08.847Z,11.50
2023-01-17T04:57:11.783Z,8.90
2023-01-17T05:02:15.022Z,8.90
2023-01-17T05:07:17.989Z,10.10
2023-01-17T05:12:21.084Z,9.10
2023-01-17T05:17:24.209Z,10.10
2023-01-17T05:22:27.187Z,8.70
2023-01-17T05:27:30.108Z,10.60
2023-01-17T05:32:33.048Z,9.00
2023-01-17T05:37:35.970Z,9.00
2023-01-17T05:42:38.911Z,8.80
2023-01-17T05:47:41.813Z,6.10
2023-01-17T05:52:58.089Z,8.00
2023-01-17T05:58:01.969Z,7.90
2023-01-17T06:08:08.560Z,8.20
2023-01-17T06:13:15.292Z,8.50
2023-01-17T06:18:18.503Z,8.50
2023-01-17T06:23:22.286Z,9.30
2023-01-17T06:28:25.236Z,8.70
2023-01-17T06:33:28.257Z,7.90
2023-01-17T06:38:31.562Z,7.90
2023-01-17T06:43:35.072Z,8.10
2023-01-17T06:48:38.025Z,9.90
2023-01-17T06:53:41.474Z,11.60
2023-01-17T06:58:44.404Z,11.60
2023-01-17T07:03:47.382Z,11.00
2023-01-17T07:08:50.533Z,8.20
2023-01-17T07:13:53.821Z,8.40
2023-01-17T07:18:58.194Z,10.30
2023-01-17T07:24:01.140Z,10.30
2023-01-17T07:29:05.376Z,9.50
2023-01-17T07:34:08.337Z,9.40
2023-01-17T07:39:11.594Z,9.50
2023-01-17T07:44:14.724Z,11.90
2023-01-17T07:49:17.635Z,10.20
2023-01-17T07:54:20.562Z,12.60
2023-01-17T07:59:23.562Z,11.20
2023-01-17T08:04:27.620Z,10.40
2023-01-17T08:09:33.522Z,10.40
2023-01-17T08:14:36.787Z,11.70
2023-01-17T08:19:39.749Z,10.80
2023-01-17T08:24:43.246Z,8.00
2023-01-17T08:29:48.417Z,73.60
2023-01-17T08:34:51.398Z,186.80
2023-01-17T08:39:54.343Z,44.30
2023-01-17T08:44:57.396Z,55.50
2023-01-17T08:50:01.121Z,66.80
2023-01-17T08:55:06.030Z,34.60
2023-01-17T09:00:11.912Z,25.70
2023-01-17T09:05:15.171Z,82.70
2023-01-17T09:10:18.169Z,56.70
2023-01-17T09:15:21.104Z,24.90
2023-01-17T09:20:25.301Z,16.70
2023-01-17T09:25:28.264Z,21.80
2023-01-17T09:30:31.281Z,31.10
2023-01-17T09:35:34.636Z,93.70
2023-01-17T09:40:44.484Z,25.80
2023-01-17T09:45:47.593Z,195.10
2023-01-17T09:51:00.509Z,193.60
2023-01-17T09:56:19.867Z,96.70
2023-01-17T10:01:37.367Z,149.30
2023-01-17T10:06:58.478Z,79.60
2023-01-17T10:12:36.553Z,203.40
2023-01-17T10:18:00.434Z,129.50
2023-01-17T10:24:06.650Z,72.20
2023-01-17T10:29:20.093Z,58.20
2023-01-17T10:34:34.381Z,40.40
2023-01-17T10:39:38.180Z,41.90
2023-01-17T10:44:46.301Z,56.00
2023-01-17T10:49:53.862Z,118.90
2023-01-17T10:55:21.226Z,60.30
2023-01-17T11:01:00.435Z,144.30
2023-01-17T11:06:20.079Z,45.60
2023-01-17T11:11:35.743Z,22.20
2023-01-17T11:16:39.580Z,32.70
2023-01-17T11:27:03.905Z,51.40
2023-01-17T11:32:33.250Z,33.40
2023-01-17T11:37:36.923Z,26.40
2023-01-17T11:42:39.856Z,48.80
2023-01-17T11:47:42.849Z,37.50
2023-01-17T11:52:45.892Z,66.40
2023-01-17T11:57:51.294Z,39.80
2023-01-17T12:03:06.306Z,33.40
2023-01-17T12:08:32.148Z,92.10
2023-01-17T12:14:00.885Z,58.50
2023-01-17T12:19:03.819Z,30.00
2023-01-17T12:24:49.749Z,34.00
2023-01-17T12:30:22.056Z,18.40
2023-01-17T12:35:38.824Z,15.40
2023-01-17T12:40:54.357Z,14.20
2023-01-17T12:46:01.103Z,16.20
2023-01-17T12:51:18.772Z,18.30
2023-01-17T12:56:52.918Z,14.30
2023-01-17T13:01:58.984Z,14.70
2023-01-17T13:07:23.147Z,18.00
2023-01-17T13:12:32.864Z,12.00
2023-01-17T13:17:38.691Z,59.50
2023-01-17T13:22:43.454Z,16.20
2023-01-17T13:28:22.788Z,12.40
2023-01-17T13:33:28.106Z,26.00
2023-01-17T13:38:55.998Z,19.20
2023-01-17T13:44:19.694Z,14.70
2023-01-17T13:49:34.935Z,15.20
2023-01-17T13:55:03.406Z,17.80
2023-01-17T14:00:21.430Z,13.40
2023-01-17T14:05:30.500Z,21.60
2023-01-17T14:10:47.290Z,12.30
2023-01-17T14:15:51.491Z,13.10
2023-01-17T14:21:24.494Z,15.10
2023-01-17T14:26:54.753Z,11.80
2023-01-17T14:32:09.181Z,11.40
2023-01-17T14:37:22.151Z,11.50
2023-01-17T14:42:28.265Z,10.30
2023-01-17T14:47:36.204Z,17.70
2023-01-17T14:52:39.157Z,51.20
2023-01-17T14:57:42.987Z,94.00
2023-01-17T15:02:48.331Z,54.10
2023-01-17T15:07:54.940Z,60.00
2023-01-17T15:13:07.847Z,68.40
2023-01-17T15:18:13.775Z,46.80
2023-01-17T15:23:23.100Z,49.10
2023-01-17T15:28:26.477Z,43.20
2023-01-17T15:33:32.430Z,35.40
2023-01-17T15:38:47.610Z,25.10
2023-01-17T15:43:51.465Z,29.50
2023-01-17T15:53:57.647Z,28.20
2023-01-17T15:59:45.577Z,23.70
2023-01-17T16:04:48.558Z,18.50
2023-01-17T16:09:51.508Z,20.80
2023-01-17T16:15:11.105Z,23.90
2023-01-17T16:20:34.310Z,30.00
2023-01-17T16:25:37.790Z,27.20
2023-01-17T16:30:40.792Z,87.10
2023-01-17T16:35:43.778Z,88.50
2023-01-17T16:40:47.472Z,50.30
2023-01-17T16:45:54.044Z,105.10
2023-01-17T16:50:57.168Z,67.80
2023-01-17T16:56:10.229Z,53.40
2023-01-17T17:01:16.648Z,47.50
2023-01-17T17:06:19.739Z,112.70
2023-01-17T17:11:23.952Z,159.20
2023-01-17T17:16:32.990Z,62.50
2023-01-17T17:21:37.640Z,75.30
2023-01-17T17:26:41.227Z,58.30
2023-01-17T17:36:47.276Z,49.20
2023-01-17T17:41:50.251Z,55.80
2023-01-17T17:46:53.514Z,60.40
2023-01-17T17:52:04.639Z,93.20
2023-01-17T17:57:07.756Z,90.40
2023-01-17T18:02:11.530Z,235.20
2023-01-17T18:07:15.008Z,176.20
2023-01-17T18:12:17.996Z,236.50
2023-01-17T18:17:21.018Z,189.50
2023-01-17T18:22:24.443Z,79.50
2023-01-17T18:27:27.467Z,68.20
2023-01-17T18:32:30.431Z,46.70
2023-01-17T18:37:34.098Z,81.10
2023-01-17T18:42:37.033Z,49.70
2023-01-17T18:47:39.978Z,45.20
2023-01-17T18:52:42.938Z,59.60
2023-01-17T18:57:45.875Z,48.80
2023-01-17T19:02:49.073Z,169.20
2023-01-17T19:07:52.315Z,163.60
2023-01-17T19:12:55.384Z,81.60
2023-01-17T19:17:58.320Z,63.80
2023-01-17T19:23:01.620Z,33.50
2023-01-17T19:28:04.684Z,37.00
2023-01-17T19:33:07.732Z,49.50
2023-01-17T19:38:10.656Z,40.40
2023-01-17T19:43:13.559Z,46.60
2023-01-17T19:48:16.992Z,50.80
2023-01-17T19:53:20.051Z,148.50
2023-01-17T19:58:22.959Z,36.40
2023-01-17T20:03:25.881Z,48.10
2023-01-17T20:08:28.832Z,80.80
2023-01-17T20:13:32.452Z,48.90
2023-01-17T20:18:36.263Z,64.20
2023-01-17T20:23:43.141Z,46.60
2023-01-17T20:28:48.974Z,41.40
2023-01-17T20:33:54.826Z,35.90
2023-01-17T20:38:57.793Z,32.30
2023-01-17T20:44:02.639Z,40.20
2023-01-17T20:49:07.660Z,35.50
2023-01-17T20:54:14.697Z,41.30
2023-01-17T20:59:22.429Z,53.00
2023-01-17T21:04:26.204Z,113.60
2023-01-17T21:09:29.175Z,80.70
2023-01-17T21:14:32.155Z,87.00
2023-01-17T21:19:37.026Z,35.10
2023-01-17T21:24:39.958Z,30.80
2023-01-17T21:29:42.924Z,24.90
2023-01-17T21:34:46.121Z,28.70
2023-01-17T21:39:54.781Z,35.80
2023-01-17T21:44:57.766Z,34.50
2023-01-17T21:50:00.710Z,27.80
2023-01-17T21:55:22.483Z,29.60
2023-01-17T22:00:25.588Z,69.90
2023-01-17T22:05:28.552Z,37.20
2023-01-17T22:10:31.638Z,29.70
2023-01-17T22:15:36.573Z,26.80
2023-01-17T22:20:41.440Z,27.50
2023-01-17T22:25:44.373Z,22.40
2023-01-17T22:30:47.313Z,27.90
2023-01-17T22:36:00.241Z,28.60
2023-01-17T22:41:09.577Z,26.40
2023-01-17T22:46:16.427Z,27.30
2023-01-17T22:51:21.279Z,26.80
2023-01-17T22:56:30.822Z,23.90
2023-01-17T23:01:33.914Z,26.40
2023-01-17T23:06:39.804Z,24.50
2023-01-17T23:11:50.975Z,23.60
2023-01-17T23:17:21.603Z,18.40
2023-01-17T23:22:27.967Z,19.80
2023-01-17T23:27:56.991Z,33.90
2023-01-17T23:33:02.814Z,17.90
2023-01-17T23:38:24.981Z,19.10
2023-01-17T23:43:28.375Z,18.80
2023-01-17T23:48:31.893Z,17.20
2023-01-17T23:53:37.330Z,17.60
2023-01-17T23:58:40.473Z,16.90
